sensor_id;sensor_type;location;lat;lon;timestamp;P1;durP1;ratioP1;P2;durP2;ratioP2
63536;SDS011;49686;51.880;5.632;2024-01-06T00:01:15;18.88;;;8.88;;
63536;SDS011;49686;51.880;5.632;2024-01-06T00:03:42;18.58;;;9.27;;
63536;SDS011;49686;51.880;5.632;2024-01-06T00:06:11;19.00;;;9.60;;
63536;SDS011;49686;51.880;5.632;2024-01-06T00:08:38;19.38;;;9.40;;
63536;SDS011;49686;51.880;5.632;2024-01-06T00:11:05;19.13;;;9.00;;
63536;SDS011;49686;51.880;5.632;2024-01-06T00:13:31;17.17;;;8.73;;
63536;SDS011;49686;51.880;5.632;2024-01-06T00:16:00;16.45;;;9.15;;
63536;SDS011;49686;51.880;5.632;2024-01-06T00:18:29;18.45;;;9.38;;
63536;SDS011;49686;51.880;5.632;2024-01-06T00:20:56;18.08;;;8.77;;
63536;SDS011;49686;51.880;5.632;2024-01-06T00:23:23;19.98;;;9.75;;
63536;SDS011;49686;51.880;5.632;2024-01-06T00:25:50;18.13;;;8.75;;
63536;SDS011;49686;51.880;5.632;2024-01-06T00:28:17;22.48;;;10.75;;
63536;SDS011;49686;51.880;5.632;2024-01-06T00:30:43;16.58;;;8.43;;
63536;SDS011;49686;51.880;5.632;2024-01-06T00:33:12;20.35;;;9.57;;
63536;SDS011;49686;51.880;5.632;2024-01-06T00:35:39;19.27;;;9.07;;
63536;SDS011;49686;51.880;5.632;2024-01-06T00:38:06;21.52;;;9.43;;
63536;SDS011;49686;51.880;5.632;2024-01-06T00:40:33;19.35;;;9.38;;
63536;SDS011;49686;51.880;5.632;2024-01-06T00:43:00;19.08;;;9.10;;
63536;SDS011;49686;51.880;5.632;2024-01-06T00:45:27;18.30;;;9.02;;
63536;SDS011;49686;51.880;5.632;2024-01-06T00:47:54;16.67;;;7.70;;
63536;SDS011;49686;51.880;5.632;2024-01-06T00:50:22;18.48;;;8.40;;
63536;SDS011;49686;51.880;5.632;2024-01-06T00:52:49;17.88;;;8.20;;
63536;SDS011;49686;51.880;5.632;2024-01-06T00:55:16;19.17;;;8.75;;
63536;SDS011;49686;51.880;5.632;2024-01-06T00:57:43;15.15;;;7.63;;
63536;SDS011;49686;51.880;5.632;2024-01-06T01:00:11;15.35;;;7.43;;
63536;SDS011;49686;51.880;5.632;2024-01-06T01:02:38;17.58;;;8.30;;
63536;SDS011;49686;51.880;5.632;2024-01-06T01:05:05;17.55;;;9.32;;
63536;SDS011;49686;51.880;5.632;2024-01-06T01:07:34;16.92;;;7.80;;
63536;SDS011;49686;51.880;5.632;2024-01-06T01:10:01;16.75;;;7.88;;
63536;SDS011;49686;51.880;5.632;2024-01-06T01:12:28;15.65;;;7.50;;
63536;SDS011;49686;51.880;5.632;2024-01-06T01:14:55;15.75;;;7.40;;
63536;SDS011;49686;51.880;5.632;2024-01-06T01:17:22;11.70;;;5.93;;
63536;SDS011;49686;51.880;5.632;2024-01-06T01:19:49;14.93;;;8.52;;
63536;SDS011;49686;51.880;5.632;2024-01-06T01:22:16;13.15;;;6.85;;
63536;SDS011;49686;51.880;5.632;2024-01-06T01:24:45;12.90;;;6.35;;
63536;SDS011;49686;51.880;5.632;2024-01-06T01:27:11;12.10;;;5.95;;
63536;SDS011;49686;51.880;5.632;2024-01-06T01:29:38;11.05;;;5.45;;
63536;SDS011;49686;51.880;5.632;2024-01-06T01:32:05;12.80;;;6.80;;
63536;SDS011;49686;51.880;5.632;2024-01-06T01:34:33;14.20;;;7.57;;
63536;SDS011;49686;51.880;5.632;2024-01-06T01:37:00;15.00;;;8.07;;
63536;SDS011;49686;51.880;5.632;2024-01-06T01:39:27;13.95;;;7.53;;
63536;SDS011;49686;51.880;5.632;2024-01-06T01:41:55;11.27;;;6.57;;
63536;SDS011;49686;51.880;5.632;2024-01-06T01:44:22;10.60;;;5.93;;
63536;SDS011;49686;51.880;5.632;2024-01-06T01:46:49;11.32;;;6.32;;
63536;SDS011;49686;51.880;5.632;2024-01-06T01:49:16;8.52;;;5.00;;
63536;SDS011;49686;51.880;5.632;2024-01-06T01:51:43;10.18;;;6.28;;
63536;SDS011;49686;51.880;5.632;2024-01-06T01:54:10;10.25;;;5.35;;
63536;SDS011;49686;51.880;5.632;2024-01-06T01:56:37;10.23;;;5.50;;
63536;SDS011;49686;51.880;5.632;2024-01-06T01:59:09;9.48;;;5.30;;
63536;SDS011;49686;51.880;5.632;2024-01-06T02:01:37;8.35;;;5.10;;
63536;SDS011;49686;51.880;5.632;2024-01-06T02:04:04;9.25;;;5.28;;
63536;SDS011;49686;51.880;5.632;2024-01-06T02:06:31;11.25;;;5.88;;
63536;SDS011;49686;51.880;5.632;2024-01-06T02:08:58;12.00;;;6.28;;
63536;SDS011;49686;51.880;5.632;2024-01-06T02:11:25;11.23;;;6.18;;
63536;SDS011;49686;51.880;5.632;2024-01-06T02:13:52;11.35;;;5.70;;
63536;SDS011;49686;51.880;5.632;2024-01-06T02:16:20;13.77;;;6.85;;
63536;SDS011;49686;51.880;5.632;2024-01-06T02:18:47;12.45;;;6.60;;
63536;SDS011;49686;51.880;5.632;2024-01-06T02:21:14;14.52;;;7.30;;
63536;SDS011;49686;51.880;5.632;2024-01-06T02:23:43;13.38;;;7.10;;
63536;SDS011;49686;51.880;5.632;2024-01-06T02:26:10;14.82;;;7.72;;
63536;SDS011;49686;51.880;5.632;2024-01-06T02:28:36;17.88;;;8.88;;
63536;SDS011;49686;51.880;5.632;2024-01-06T02:31:03;15.30;;;7.78;;
63536;SDS011;49686;51.880;5.632;2024-01-06T02:33:31;15.98;;;8.55;;
63536;SDS011;49686;51.880;5.632;2024-01-06T02:35:58;18.15;;;9.30;;
63536;SDS011;49686;51.880;5.632;2024-01-06T02:38:24;16.70;;;8.45;;
63536;SDS011;49686;51.880;5.632;2024-01-06T02:40:53;17.20;;;8.70;;
63536;SDS011;49686;51.880;5.632;2024-01-06T02:43:19;15.32;;;8.95;;
63536;SDS011;49686;51.880;5.632;2024-01-06T02:45:46;15.73;;;8.23;;
63536;SDS011;49686;51.880;5.632;2024-01-06T02:48:13;17.48;;;8.65;;
63536;SDS011;49686;51.880;5.632;2024-01-06T02:50:40;16.23;;;7.90;;
63536;SDS011;49686;51.880;5.632;2024-01-06T02:53:07;15.75;;;8.55;;
63536;SDS011;49686;51.880;5.632;2024-01-06T02:55:34;16.83;;;7.35;;
63536;SDS011;49686;51.880;5.632;2024-01-06T02:58:02;15.07;;;7.88;;
63536;SDS011;49686;51.880;5.632;2024-01-06T03:00:29;15.73;;;7.90;;
63536;SDS011;49686;51.880;5.632;2024-01-06T03:02:56;15.20;;;7.53;;
63536;SDS011;49686;51.880;5.632;2024-01-06T03:05:23;18.95;;;8.00;;
63536;SDS011;49686;51.880;5.632;2024-01-06T03:07:50;14.98;;;7.72;;
63536;SDS011;49686;51.880;5.632;2024-01-06T03:10:17;15.55;;;7.07;;
63536;SDS011;49686;51.880;5.632;2024-01-06T03:12:44;16.33;;;7.72;;
63536;SDS011;49686;51.880;5.632;2024-01-06T03:15:13;15.85;;;8.20;;
63536;SDS011;49686;51.880;5.632;2024-01-06T03:17:40;16.10;;;8.18;;
63536;SDS011;49686;51.880;5.632;2024-01-06T03:20:07;15.57;;;7.90;;
63536;SDS011;49686;51.880;5.632;2024-01-06T03:22:34;15.10;;;7.68;;
63536;SDS011;49686;51.880;5.632;2024-01-06T03:25:01;21.45;;;9.45;;
63536;SDS011;49686;51.880;5.632;2024-01-06T03:27:28;17.75;;;9.13;;
63536;SDS011;49686;51.880;5.632;2024-01-06T03:29:55;16.48;;;8.25;;
63536;SDS011;49686;51.880;5.632;2024-01-06T03:32:24;16.60;;;9.50;;
63536;SDS011;49686;51.880;5.632;2024-01-06T03:34:51;17.20;;;9.35;;
63536;SDS011;49686;51.880;5.632;2024-01-06T03:37:18;14.55;;;7.50;;
63536;SDS011;49686;51.880;5.632;2024-01-06T03:39:45;16.98;;;8.88;;
63536;SDS011;49686;51.880;5.632;2024-01-06T03:42:11;16.55;;;9.02;;
63536;SDS011;49686;51.880;5.632;2024-01-06T03:44:38;14.75;;;8.10;;
63536;SDS011;49686;51.880;5.632;2024-01-06T03:47:05;14.38;;;8.60;;
63536;SDS011;49686;51.880;5.632;2024-01-06T03:49:33;18.15;;;8.40;;
63536;SDS011;49686;51.880;5.632;2024-01-06T03:52:00;13.90;;;8.05;;
63536;SDS011;49686;51.880;5.632;2024-01-06T03:54:27;16.25;;;8.07;;
63536;SDS011;49686;51.880;5.632;2024-01-06T03:56:54;15.63;;;7.70;;
63536;SDS011;49686;51.880;5.632;2024-01-06T03:59:21;14.55;;;7.95;;
63536;SDS011;49686;51.880;5.632;2024-01-06T04:01:48;16.13;;;8.05;;
63536;SDS011;49686;51.880;5.632;2024-01-06T04:04:15;16.48;;;7.88;;
63536;SDS011;49686;51.880;5.632;2024-01-06T04:06:43;15.05;;;7.70;;
63536;SDS011;49686;51.880;5.632;2024-01-06T04:09:10;12.73;;;6.93;;
63536;SDS011;49686;51.880;5.632;2024-01-06T04:11:37;16.50;;;9.13;;
63536;SDS011;49686;51.880;5.632;2024-01-06T04:14:04;16.17;;;8.45;;
63536;SDS011;49686;51.880;5.632;2024-01-06T04:16:31;18.77;;;8.40;;
63536;SDS011;49686;51.880;5.632;2024-01-06T04:18:58;17.48;;;8.65;;
63536;SDS011;49686;51.880;5.632;2024-01-06T04:21:25;18.42;;;9.50;;
63536;SDS011;49686;51.880;5.632;2024-01-06T04:23:53;17.33;;;8.98;;
63536;SDS011;49686;51.880;5.632;2024-01-06T04:26:20;17.88;;;8.85;;
63536;SDS011;49686;51.880;5.632;2024-01-06T04:28:47;18.35;;;7.97;;
63536;SDS011;49686;51.880;5.632;2024-01-06T04:31:14;18.33;;;9.77;;
63536;SDS011;49686;51.880;5.632;2024-01-06T04:33:41;19.60;;;8.88;;
63536;SDS011;49686;51.880;5.632;2024-01-06T04:36:08;17.80;;;9.25;;
63536;SDS011;49686;51.880;5.632;2024-01-06T04:38:35;23.05;;;10.68;;
63536;SDS011;49686;51.880;5.632;2024-01-06T04:41:03;18.70;;;10.40;;
63536;SDS011;49686;51.880;5.632;2024-01-06T04:43:30;21.77;;;10.77;;
63536;SDS011;49686;51.880;5.632;2024-01-06T04:45:57;21.67;;;9.13;;
63536;SDS011;49686;51.880;5.632;2024-01-06T04:48:24;20.45;;;9.38;;
63536;SDS011;49686;51.880;5.632;2024-01-06T04:50:51;19.48;;;8.88;;
63536;SDS011;49686;51.880;5.632;2024-01-06T04:53:19;21.23;;;9.73;;
63536;SDS011;49686;51.880;5.632;2024-01-06T04:55:46;22.17;;;10.00;;
63536;SDS011;49686;51.880;5.632;2024-01-06T04:58:14;21.27;;;10.13;;
63536;SDS011;49686;51.880;5.632;2024-01-06T05:00:41;22.23;;;11.20;;
63536;SDS011;49686;51.880;5.632;2024-01-06T05:03:08;20.20;;;9.65;;
63536;SDS011;49686;51.880;5.632;2024-01-06T05:05:35;19.35;;;9.45;;
63536;SDS011;49686;51.880;5.632;2024-01-06T05:08:02;24.85;;;11.30;;
63536;SDS011;49686;51.880;5.632;2024-01-06T05:10:29;20.27;;;10.00;;
63536;SDS011;49686;51.880;5.632;2024-01-06T05:12:56;19.65;;;9.50;;
63536;SDS011;49686;51.880;5.632;2024-01-06T05:15:25;21.17;;;10.30;;
63536;SDS011;49686;51.880;5.632;2024-01-06T05:17:51;17.50;;;8.65;;
63536;SDS011;49686;51.880;5.632;2024-01-06T05:20:18;18.48;;;8.50;;
63536;SDS011;49686;51.880;5.632;2024-01-06T05:22:45;13.48;;;7.40;;
63536;SDS011;49686;51.880;5.632;2024-01-06T05:25:12;12.23;;;6.22;;
63536;SDS011;49686;51.880;5.632;2024-01-06T05:27:39;13.98;;;6.55;;
63536;SDS011;49686;51.880;5.632;2024-01-06T05:30:07;13.07;;;5.95;;
63536;SDS011;49686;51.880;5.632;2024-01-06T05:32:36;12.60;;;6.57;;
63536;SDS011;49686;51.880;5.632;2024-01-06T05:35:03;10.88;;;5.35;;
63536;SDS011;49686;51.880;5.632;2024-01-06T05:37:31;12.50;;;6.13;;
63536;SDS011;49686;51.880;5.632;2024-01-06T05:39:58;12.80;;;5.55;;
63536;SDS011;49686;51.880;5.632;2024-01-06T05:42:25;13.65;;;6.25;;
63536;SDS011;49686;51.880;5.632;2024-01-06T05:44:52;13.80;;;6.93;;
63536;SDS011;49686;51.880;5.632;2024-01-06T05:47:19;12.45;;;6.07;;
63536;SDS011;49686;51.880;5.632;2024-01-06T05:49:47;14.02;;;6.25;;
63536;SDS011;49686;51.880;5.632;2024-01-06T05:52:14;13.00;;;6.75;;
63536;SDS011;49686;51.880;5.632;2024-01-06T05:54:42;14.75;;;6.95;;
63536;SDS011;49686;51.880;5.632;2024-01-06T05:57:09;13.35;;;6.72;;
63536;SDS011;49686;51.880;5.632;2024-01-06T05:59:36;12.00;;;6.70;;
63536;SDS011;49686;51.880;5.632;2024-01-06T06:02:03;12.77;;;6.32;;
63536;SDS011;49686;51.880;5.632;2024-01-06T06:04:31;12.75;;;5.90;;
63536;SDS011;49686;51.880;5.632;2024-01-06T06:07:02;12.27;;;6.38;;
63536;SDS011;49686;51.880;5.632;2024-01-06T06:09:29;12.13;;;6.45;;
63536;SDS011;49686;51.880;5.632;2024-01-06T06:11:56;15.25;;;6.53;;
63536;SDS011;49686;51.880;5.632;2024-01-06T06:14:23;16.75;;;7.22;;
63536;SDS011;49686;51.880;5.632;2024-01-06T06:16:54;15.02;;;7.32;;
63536;SDS011;49686;51.880;5.632;2024-01-06T06:19:21;14.73;;;6.88;;
63536;SDS011;49686;51.880;5.632;2024-01-06T06:21:48;12.50;;;6.93;;
63536;SDS011;49686;51.880;5.632;2024-01-06T06:24:16;15.30;;;7.97;;
63536;SDS011;49686;51.880;5.632;2024-01-06T06:26:43;14.25;;;6.57;;
63536;SDS011;49686;51.880;5.632;2024-01-06T06:29:10;15.93;;;8.48;;
63536;SDS011;49686;51.880;5.632;2024-01-06T06:31:37;16.40;;;8.18;;
63536;SDS011;49686;51.880;5.632;2024-01-06T06:34:04;18.42;;;8.55;;
63536;SDS011;49686;51.880;5.632;2024-01-06T06:36:34;14.90;;;8.02;;
63536;SDS011;49686;51.880;5.632;2024-01-06T06:39:01;14.45;;;7.70;;
63536;SDS011;49686;51.880;5.632;2024-01-06T06:41:30;13.90;;;8.20;;
63536;SDS011;49686;51.880;5.632;2024-01-06T06:43:57;17.15;;;9.75;;
63536;SDS011;49686;51.880;5.632;2024-01-06T06:46:24;15.75;;;8.90;;
63536;SDS011;49686;51.880;5.632;2024-01-06T06:48:50;16.75;;;8.48;;
63536;SDS011;49686;51.880;5.632;2024-01-06T06:51:18;16.50;;;9.05;;
63536;SDS011;49686;51.880;5.632;2024-01-06T06:53:44;16.08;;;9.00;;
63536;SDS011;49686;51.880;5.632;2024-01-06T06:56:15;13.75;;;8.18;;
63536;SDS011;49686;51.880;5.632;2024-01-06T06:58:43;14.75;;;8.35;;
63536;SDS011;49686;51.880;5.632;2024-01-06T07:01:10;16.00;;;9.32;;
63536;SDS011;49686;51.880;5.632;2024-01-06T07:03:39;16.48;;;9.00;;
63536;SDS011;49686;51.880;5.632;2024-01-06T07:06:06;13.30;;;7.93;;
63536;SDS011;49686;51.880;5.632;2024-01-06T07:08:33;19.23;;;9.45;;
63536;SDS011;49686;51.880;5.632;2024-01-06T07:11:00;12.68;;;7.60;;
63536;SDS011;49686;51.880;5.632;2024-01-06T07:13:27;15.90;;;8.00;;
63536;SDS011;49686;51.880;5.632;2024-01-06T07:15:55;16.77;;;8.77;;
63536;SDS011;49686;51.880;5.632;2024-01-06T07:18:40;12.18;;;6.93;;
63536;SDS011;49686;51.880;5.632;2024-01-06T07:21:07;17.40;;;9.38;;
63536;SDS011;49686;51.880;5.632;2024-01-06T07:23:34;14.38;;;8.07;;
63536;SDS011;49686;51.880;5.632;2024-01-06T07:26:01;14.30;;;7.68;;
63536;SDS011;49686;51.880;5.632;2024-01-06T07:28:30;15.65;;;8.23;;
63536;SDS011;49686;51.880;5.632;2024-01-06T07:30:59;13.85;;;8.10;;
63536;SDS011;49686;51.880;5.632;2024-01-06T07:33:27;16.52;;;8.18;;
63536;SDS011;49686;51.880;5.632;2024-01-06T07:35:54;14.57;;;8.02;;
63536;SDS011;49686;51.880;5.632;2024-01-06T07:38:21;14.25;;;7.05;;
63536;SDS011;49686;51.880;5.632;2024-01-06T07:40:47;13.20;;;7.13;;
63536;SDS011;49686;51.880;5.632;2024-01-06T07:43:14;15.43;;;7.82;;
63536;SDS011;49686;51.880;5.632;2024-01-06T07:45:41;11.80;;;6.93;;
63536;SDS011;49686;51.880;5.632;2024-01-06T07:48:10;13.68;;;7.13;;
63536;SDS011;49686;51.880;5.632;2024-01-06T07:50:37;13.88;;;7.18;;
63536;SDS011;49686;51.880;5.632;2024-01-06T07:53:04;13.50;;;7.53;;
63536;SDS011;49686;51.880;5.632;2024-01-06T07:55:31;13.98;;;7.65;;
63536;SDS011;49686;51.880;5.632;2024-01-06T07:57:58;13.68;;;7.78;;
63536;SDS011;49686;51.880;5.632;2024-01-06T08:00:25;14.32;;;7.30;;
63536;SDS011;49686;51.880;5.632;2024-01-06T08:02:52;13.95;;;7.85;;
63536;SDS011;49686;51.880;5.632;2024-01-06T08:05:20;14.73;;;8.23;;
63536;SDS011;49686;51.880;5.632;2024-01-06T08:07:47;15.65;;;9.40;;
63536;SDS011;49686;51.880;5.632;2024-01-06T08:10:14;15.13;;;7.63;;
63536;SDS011;49686;51.880;5.632;2024-01-06T08:12:41;14.18;;;7.38;;
63536;SDS011;49686;51.880;5.632;2024-01-06T08:15:08;15.40;;;8.85;;
63536;SDS011;49686;51.880;5.632;2024-01-06T08:17:35;17.90;;;9.45;;
63536;SDS011;49686;51.880;5.632;2024-01-06T08:20:02;18.27;;;9.90;;
63536;SDS011;49686;51.880;5.632;2024-01-06T08:22:31;16.20;;;8.23;;
63536;SDS011;49686;51.880;5.632;2024-01-06T08:24:58;17.23;;;9.07;;
63536;SDS011;49686;51.880;5.632;2024-01-06T08:27:25;15.85;;;9.10;;
63536;SDS011;49686;51.880;5.632;2024-01-06T08:29:52;16.40;;;8.45;;
63536;SDS011;49686;51.880;5.632;2024-01-06T08:32:19;15.77;;;8.60;;
63536;SDS011;49686;51.880;5.632;2024-01-06T08:34:46;13.35;;;7.70;;
63536;SDS011;49686;51.880;5.632;2024-01-06T08:37:13;17.85;;;8.35;;
63536;SDS011;49686;51.880;5.632;2024-01-06T08:39:41;14.55;;;7.78;;
63536;SDS011;49686;51.880;5.632;2024-01-06T08:42:08;16.95;;;9.15;;
63536;SDS011;49686;51.880;5.632;2024-01-06T08:44:35;15.30;;;8.40;;
63536;SDS011;49686;51.880;5.632;2024-01-06T08:47:02;16.42;;;8.25;;
63536;SDS011;49686;51.880;5.632;2024-01-06T08:49:29;16.58;;;8.68;;
63536;SDS011;49686;51.880;5.632;2024-01-06T08:51:56;15.93;;;8.23;;
63536;SDS011;49686;51.880;5.632;2024-01-06T08:54:24;19.40;;;9.20;;
63536;SDS011;49686;51.880;5.632;2024-01-06T08:56:52;14.18;;;8.52;;
63536;SDS011;49686;51.880;5.632;2024-01-06T08:59:19;16.55;;;8.60;;
63536;SDS011;49686;51.880;5.632;2024-01-06T09:01:46;14.32;;;8.13;;
63536;SDS011;49686;51.880;5.632;2024-01-06T09:04:15;15.40;;;8.93;;
63536;SDS011;49686;51.880;5.632;2024-01-06T09:06:42;14.02;;;8.27;;
63536;SDS011;49686;51.880;5.632;2024-01-06T09:09:09;16.70;;;8.80;;
63536;SDS011;49686;51.880;5.632;2024-01-06T09:11:36;13.35;;;7.85;;
63536;SDS011;49686;51.880;5.632;2024-01-06T09:14:04;13.90;;;8.00;;
63536;SDS011;49686;51.880;5.632;2024-01-06T09:16:31;17.55;;;8.93;;
63536;SDS011;49686;51.880;5.632;2024-01-06T09:18:58;15.95;;;8.57;;
63536;SDS011;49686;51.880;5.632;2024-01-06T09:21:25;16.52;;;8.02;;
63536;SDS011;49686;51.880;5.632;2024-01-06T09:23:52;17.90;;;9.68;;
63536;SDS011;49686;51.880;5.632;2024-01-06T09:26:19;14.23;;;7.60;;
63536;SDS011;49686;51.880;5.632;2024-01-06T09:28:46;16.33;;;8.98;;
63536;SDS011;49686;51.880;5.632;2024-01-06T09:31:14;16.27;;;8.98;;
63536;SDS011;49686;51.880;5.632;2024-01-06T09:33:42;13.60;;;7.65;;
63536;SDS011;49686;51.880;5.632;2024-01-06T09:36:10;17.05;;;9.13;;
63536;SDS011;49686;51.880;5.632;2024-01-06T09:38:37;19.92;;;10.25;;
63536;SDS011;49686;51.880;5.632;2024-01-06T09:41:04;14.43;;;7.63;;
63536;SDS011;49686;51.880;5.632;2024-01-06T09:43:31;13.43;;;8.10;;
63536;SDS011;49686;51.880;5.632;2024-01-06T09:46:02;14.88;;;8.05;;
63536;SDS011;49686;51.880;5.632;2024-01-06T09:48:39;14.52;;;7.85;;
63536;SDS011;49686;51.880;5.632;2024-01-06T09:51:09;14.65;;;8.48;;
63536;SDS011;49686;51.880;5.632;2024-01-06T09:53:39;13.98;;;9.30;;
63536;SDS011;49686;51.880;5.632;2024-01-06T09:56:09;13.48;;;7.88;;
63536;SDS011;49686;51.880;5.632;2024-01-06T09:58:36;14.25;;;7.80;;
63536;SDS011;49686;51.880;5.632;2024-01-06T10:01:06;14.05;;;8.90;;
63536;SDS011;49686;51.880;5.632;2024-01-06T10:03:33;15.80;;;8.10;;
63536;SDS011;49686;51.880;5.632;2024-01-06T10:06:03;13.80;;;7.68;;
63536;SDS011;49686;51.880;5.632;2024-01-06T10:08:30;13.32;;;8.52;;
63536;SDS011;49686;51.880;5.632;2024-01-06T10:10:57;14.63;;;7.82;;
63536;SDS011;49686;51.880;5.632;2024-01-06T10:13:24;12.93;;;8.55;;
63536;SDS011;49686;51.880;5.632;2024-01-06T10:15:51;14.85;;;8.52;;
63536;SDS011;49686;51.880;5.632;2024-01-06T10:18:18;12.35;;;8.15;;
63536;SDS011;49686;51.880;5.632;2024-01-06T10:20:45;14.85;;;8.80;;
63536;SDS011;49686;51.880;5.632;2024-01-06T10:23:14;13.25;;;8.15;;
63536;SDS011;49686;51.880;5.632;2024-01-06T10:25:42;15.20;;;9.50;;
63536;SDS011;49686;51.880;5.632;2024-01-06T10:28:11;13.05;;;8.15;;
63536;SDS011;49686;51.880;5.632;2024-01-06T10:30:40;14.52;;;8.82;;
63536;SDS011;49686;51.880;5.632;2024-01-06T10:33:08;42.72;;;18.35;;
63536;SDS011;49686;51.880;5.632;2024-01-06T10:35:35;17.73;;;10.00;;
63536;SDS011;49686;51.880;5.632;2024-01-06T10:38:03;18.38;;;10.05;;
63536;SDS011;49686;51.880;5.632;2024-01-06T10:40:32;15.80;;;8.37;;
63536;SDS011;49686;51.880;5.632;2024-01-06T10:42:59;14.75;;;8.63;;
63536;SDS011;49686;51.880;5.632;2024-01-06T10:45:28;14.20;;;8.57;;
63536;SDS011;49686;51.880;5.632;2024-01-06T10:47:55;17.73;;;9.88;;
63536;SDS011;49686;51.880;5.632;2024-01-06T10:50:23;14.77;;;10.15;;
63536;SDS011;49686;51.880;5.632;2024-01-06T10:52:50;14.02;;;9.23;;
63536;SDS011;49686;51.880;5.632;2024-01-06T10:55:19;13.85;;;8.35;;
63536;SDS011;49686;51.880;5.632;2024-01-06T10:57:49;13.90;;;7.80;;
63536;SDS011;49686;51.880;5.632;2024-01-06T11:00:17;13.00;;;8.00;;
63536;SDS011;49686;51.880;5.632;2024-01-06T11:02:44;14.82;;;8.57;;
63536;SDS011;49686;51.880;5.632;2024-01-06T11:07:41;13.38;;;8.23;;
63536;SDS011;49686;51.880;5.632;2024-01-06T11:10:10;13.75;;;8.52;;
63536;SDS011;49686;51.880;5.632;2024-01-06T11:12:42;16.75;;;9.55;;
63536;SDS011;49686;51.880;5.632;2024-01-06T11:15:20;13.68;;;8.85;;
63536;SDS011;49686;51.880;5.632;2024-01-06T11:18:07;11.05;;;8.05;;
63536;SDS011;49686;51.880;5.632;2024-01-06T11:20:36;14.15;;;8.60;;
63536;SDS011;49686;51.880;5.632;2024-01-06T11:25:54;13.05;;;7.00;;
63536;SDS011;49686;51.880;5.632;2024-01-06T11:28:21;16.00;;;8.68;;
63536;SDS011;49686;51.880;5.632;2024-01-06T11:30:49;13.50;;;8.45;;
63536;SDS011;49686;51.880;5.632;2024-01-06T11:33:34;13.13;;;8.73;;
63536;SDS011;49686;51.880;5.632;2024-01-06T11:36:08;14.10;;;9.30;;
63536;SDS011;49686;51.880;5.632;2024-01-06T11:38:37;13.77;;;8.20;;
63536;SDS011;49686;51.880;5.632;2024-01-06T11:43:33;11.68;;;7.30;;
63536;SDS011;49686;51.880;5.632;2024-01-06T11:46:02;11.43;;;7.53;;
63536;SDS011;49686;51.880;5.632;2024-01-06T11:48:32;14.30;;;8.75;;
63536;SDS011;49686;51.880;5.632;2024-01-06T11:51:00;13.90;;;8.25;;
63536;SDS011;49686;51.880;5.632;2024-01-06T11:53:29;20.15;;;13.20;;
63536;SDS011;49686;51.880;5.632;2024-01-06T11:55:56;17.67;;;10.27;;
63536;SDS011;49686;51.880;5.632;2024-01-06T11:58:23;14.82;;;10.43;;
63536;SDS011;49686;51.880;5.632;2024-01-06T12:00:55;14.25;;;9.43;;
63536;SDS011;49686;51.880;5.632;2024-01-06T12:03:24;15.05;;;8.93;;
63536;SDS011;49686;51.880;5.632;2024-01-06T12:06:01;12.80;;;8.40;;
63536;SDS011;49686;51.880;5.632;2024-01-06T12:08:29;12.82;;;8.57;;
63536;SDS011;49686;51.880;5.632;2024-01-06T12:11:02;11.55;;;7.78;;
63536;SDS011;49686;51.880;5.632;2024-01-06T12:13:30;11.57;;;7.32;;
63536;SDS011;49686;51.880;5.632;2024-01-06T12:15:57;11.23;;;7.32;;
63536;SDS011;49686;51.880;5.632;2024-01-06T12:18:28;14.10;;;9.02;;
63536;SDS011;49686;51.880;5.632;2024-01-06T12:20:55;12.75;;;8.55;;
63536;SDS011;49686;51.880;5.632;2024-01-06T12:23:25;16.55;;;8.60;;
63536;SDS011;49686;51.880;5.632;2024-01-06T12:25:52;13.43;;;7.80;;
63536;SDS011;49686;51.880;5.632;2024-01-06T12:28:19;17.40;;;10.05;;
63536;SDS011;49686;51.880;5.632;2024-01-06T12:30:46;13.60;;;8.77;;
63536;SDS011;49686;51.880;5.632;2024-01-06T12:33:13;13.20;;;8.38;;
63536;SDS011;49686;51.880;5.632;2024-01-06T12:35:42;13.30;;;8.63;;
63536;SDS011;49686;51.880;5.632;2024-01-06T12:38:09;15.48;;;9.60;;
63536;SDS011;49686;51.880;5.632;2024-01-06T12:40:36;14.77;;;9.77;;
63536;SDS011;49686;51.880;5.632;2024-01-06T12:43:04;16.17;;;9.93;;
63536;SDS011;49686;51.880;5.632;2024-01-06T12:45:31;14.73;;;10.45;;
63536;SDS011;49686;51.880;5.632;2024-01-06T12:47:58;16.55;;;9.88;;
63536;SDS011;49686;51.880;5.632;2024-01-06T12:50:25;13.63;;;9.15;;
63536;SDS011;49686;51.880;5.632;2024-01-06T12:52:53;17.58;;;11.27;;
63536;SDS011;49686;51.880;5.632;2024-01-06T12:55:21;18.33;;;11.40;;
63536;SDS011;49686;51.880;5.632;2024-01-06T12:57:48;17.00;;;10.75;;
63536;SDS011;49686;51.880;5.632;2024-01-06T13:00:15;14.38;;;8.75;;
63536;SDS011;49686;51.880;5.632;2024-01-06T13:02:43;15.38;;;9.45;;
63536;SDS011;49686;51.880;5.632;2024-01-06T13:05:10;17.48;;;10.80;;
63536;SDS011;49686;51.880;5.632;2024-01-06T13:07:36;16.75;;;8.95;;
63536;SDS011;49686;51.880;5.632;2024-01-06T13:10:08;18.15;;;9.68;;
63536;SDS011;49686;51.880;5.632;2024-01-06T13:12:35;15.20;;;8.60;;
63536;SDS011;49686;51.880;5.632;2024-01-06T13:15:02;18.48;;;11.27;;
63536;SDS011;49686;51.880;5.632;2024-01-06T13:17:30;15.23;;;8.80;;
63536;SDS011;49686;51.880;5.632;2024-01-06T13:19:56;13.60;;;8.75;;
63536;SDS011;49686;51.880;5.632;2024-01-06T13:22:26;14.57;;;9.77;;
63536;SDS011;49686;51.880;5.632;2024-01-06T13:24:53;14.50;;;8.68;;
63536;SDS011;49686;51.880;5.632;2024-01-06T13:27:21;17.77;;;9.27;;
63536;SDS011;49686;51.880;5.632;2024-01-06T13:29:48;12.55;;;8.00;;
63536;SDS011;49686;51.880;5.632;2024-01-06T13:32:15;16.05;;;9.18;;
63536;SDS011;49686;51.880;5.632;2024-01-06T13:34:42;15.48;;;8.80;;
63536;SDS011;49686;51.880;5.632;2024-01-06T13:37:09;15.98;;;8.90;;
63536;SDS011;49686;51.880;5.632;2024-01-06T13:39:36;15.57;;;9.18;;
63536;SDS011;49686;51.880;5.632;2024-01-06T13:42:03;14.75;;;9.13;;
63536;SDS011;49686;51.880;5.632;2024-01-06T13:44:32;15.38;;;9.00;;
63536;SDS011;49686;51.880;5.632;2024-01-06T13:46:59;14.20;;;8.18;;
63536;SDS011;49686;51.880;5.632;2024-01-06T13:49:26;16.77;;;10.48;;
63536;SDS011;49686;51.880;5.632;2024-01-06T13:51:53;17.27;;;10.07;;
63536;SDS011;49686;51.880;5.632;2024-01-06T13:54:21;16.17;;;9.70;;
63536;SDS011;49686;51.880;5.632;2024-01-06T13:56:48;14.45;;;8.73;;
63536;SDS011;49686;51.880;5.632;2024-01-06T13:59:15;15.77;;;8.90;;
63536;SDS011;49686;51.880;5.632;2024-01-06T14:01:43;17.70;;;10.27;;
63536;SDS011;49686;51.880;5.632;2024-01-06T14:04:10;16.50;;;10.02;;
63536;SDS011;49686;51.880;5.632;2024-01-06T14:06:41;17.55;;;9.70;;
63536;SDS011;49686;51.880;5.632;2024-01-06T14:09:08;21.13;;;10.52;;
63536;SDS011;49686;51.880;5.632;2024-01-06T14:11:35;16.00;;;10.27;;
63536;SDS011;49686;51.880;5.632;2024-01-06T14:14:02;17.42;;;9.75;;
63536;SDS011;49686;51.880;5.632;2024-01-06T14:16:32;18.52;;;11.27;;
63536;SDS011;49686;51.880;5.632;2024-01-06T14:19:00;16.00;;;9.80;;
63536;SDS011;49686;51.880;5.632;2024-01-06T14:21:27;18.92;;;11.40;;
63536;SDS011;49686;51.880;5.632;2024-01-06T14:23:55;18.35;;;10.80;;
63536;SDS011;49686;51.880;5.632;2024-01-06T14:26:21;14.93;;;9.50;;
63536;SDS011;49686;51.880;5.632;2024-01-06T14:28:48;18.85;;;11.35;;
63536;SDS011;49686;51.880;5.632;2024-01-06T14:31:15;18.70;;;9.60;;
63536;SDS011;49686;51.880;5.632;2024-01-06T14:33:44;17.15;;;10.85;;
63536;SDS011;49686;51.880;5.632;2024-01-06T14:36:12;17.83;;;11.32;;
63536;SDS011;49686;51.880;5.632;2024-01-06T14:38:39;17.77;;;11.15;;
63536;SDS011;49686;51.880;5.632;2024-01-06T14:41:06;19.08;;;11.27;;
63536;SDS011;49686;51.880;5.632;2024-01-06T14:43:33;19.95;;;10.98;;